Airfield :
LOGIN :

Register | Disclaimer

   EN    FR    IT 

 










Legend :    VFR   Marginal VFR   IFR   Intensive IFR   Very Intensive IFR
Visi :
Ceiling :
>= 8 km
>= 3000ft
5 to 8 km
1000 to 3000 ft
1500m to 5 km
500 to 1000 ft
800 to 1500m
200 to 500 ft
< 800m
< 200 ft
Symbols :   Thunderstorms  Fog  Heavy snow  Heavy precipitations  Wind > 20 kt
SIGMETs :     Misc.  Thunderstorms  Icing  Turbulence  Mountain Waves  Volcanic Ashes







- Airport Elevation : 788 ft
- IATA code : DCM
- Download approach charts


LFCK - Castres-Mazamet

CURRENT METAR :
  • 200930Z AUTO 30004KT 250V340 9999 BKN019 OVC036 19/15 Q1018 NOSIG

EXPIRED METARs :
  • 200900Z AUTO 29005KT 260V320 9999 BKN015 OVC020 19/16 Q1017 NOSIG
  • 200830Z AUTO 28007KT 9999 BKN012 OVC017 18/16 Q1018 BECMG BKN030
  • 200800Z AUTO 29007KT 9999 BKN008 OVC015 18/16 Q1018 BECMG BKN015
  • 200730Z AUTO 28008KT 9999 BKN007 OVC031 18/17 Q1018 BECMG BKN015
  • 200700Z AUTO 33006KT 9999 SCT007 BKN012 OVC030 18/17 Q1017 BECMG BKN015

TAF TAF LFCK
Valid from the 20 at 09:00 until the 20 at 18:00 UTC


200800Z 2009/2018 29008KT 9999 BKN015
BECMG 2010/2012 BKN030
TEMPO 2012/2018 SCT035TCU
No reported NOTAMs for that airfield.



MET'MAP, your aeronautical weather chart ! - Copyright ORBIFLY December 2007 - Disclaimer

ORBIFLY MET'MAP TEAM :

Programming & Development : Alexandra Zaïnal
Concept & Development : Baudouin d'Aumeries
Co-Development & Prog : Marc-Olivier Méhu
Technical & hardware support : Manuel Goepfert

Contact : metmap@orbifly.com




SOURCES & CREDITS :

   NOAA